Oakhurst, Texas
Current Conditions -  °F | °C
As of 3:53 PM on Friday 24 Oct 2014 (Local Time) from KUTS Reporting Station
Clear Clear  
Wind Chill: 81°   Ceiling: Unl
Heat Index: 81°   Visibility: 10mi
Dew Point: 55°   Wind: 6mph
Humidity: 41%   Direction: NA
Pressure: 30.1"   Gusts: NA
Location:  30.74°N, 95.32°W
Report Text: KUTS 242053Z AUTO VRB05KT 10SM CLR 27/13 A3010 RMK AO2 SLP189 T02720128 56023
Loading
Personal Weather Stations






























Interactive Weather Map
Tropical Storm Tracking
New forecast layout! Learn more

10-Day Weather Forecast

Advertisements
Track Severe Weather on mobile